Pittston, Maine
Current Conditions -  °F | °C
As of 7:53 AM on Friday 19 Dec 2014 (Local Time) from KAUG Reporting Station
Overcast Overcast  
Wind Chill: 21°   Ceiling: 3000
Heat Index: 28°   Visibility: 10mi
Dew Point: 21°   Wind: 7mph
Humidity: 75%   Direction: 350°N
Pressure: 29.88"   Gusts: NA
Location:  44.198°N, 69.7053°W
Report Text: KAUG 191253Z AUTO 35006KT 10SM OVC030 M02/M06 A2988 RMK AO2 SLP125 T10221061
Loading
Personal Weather Stations






























Interactive Weather Map New forecast layout! Learn more

10-Day Weather Forecast

Advertisements
Track Severe Weather on mobile